sensor_id;sensor_type;location;lat;lon;timestamp;P1;durP1;ratioP1;P2;durP2;ratioP2
28373;SDS011;15616;40.148;-102.718;2022-12-18T00:01:48;6.50;;;3.80;;
28373;SDS011;15616;40.148;-102.718;2022-12-18T00:04:21;7.22;;;3.88;;
28373;SDS011;15616;40.148;-102.718;2022-12-18T00:06:48;7.32;;;3.92;;
28373;SDS011;15616;40.148;-102.718;2022-12-18T00:09:14;5.60;;;3.50;;
28373;SDS011;15616;40.148;-102.718;2022-12-18T00:11:41;6.30;;;3.70;;
28373;SDS011;15616;40.148;-102.718;2022-12-18T00:14:08;6.07;;;3.53;;
28373;SDS011;15616;40.148;-102.718;2022-12-18T00:16:36;7.65;;;4.03;;
28373;SDS011;15616;40.148;-102.718;2022-12-18T00:19:02;6.50;;;3.67;;
28373;SDS011;15616;40.148;-102.718;2022-12-18T00:21:29;6.38;;;3.80;;
28373;SDS011;15616;40.148;-102.718;2022-12-18T00:23:57;8.43;;;3.70;;
28373;SDS011;15616;40.148;-102.718;2022-12-18T00:26:26;6.65;;;3.80;;
28373;SDS011;15616;40.148;-102.718;2022-12-18T00:28:57;6.72;;;3.70;;
28373;SDS011;15616;40.148;-102.718;2022-12-18T00:31:27;7.10;;;4.28;;
28373;SDS011;15616;40.148;-102.718;2022-12-18T00:33:54;6.68;;;3.72;;
28373;SDS011;15616;40.148;-102.718;2022-12-18T00:36:23;6.75;;;3.50;;
28373;SDS011;15616;40.148;-102.718;2022-12-18T00:38:50;6.60;;;3.70;;
28373;SDS011;15616;40.148;-102.718;2022-12-18T00:41:16;6.72;;;4.00;;
28373;SDS011;15616;40.148;-102.718;2022-12-18T00:44:03;7.53;;;4.15;;
28373;SDS011;15616;40.148;-102.718;2022-12-18T00:46:31;6.25;;;3.83;;
28373;SDS011;15616;40.148;-102.718;2022-12-18T00:48:57;7.18;;;4.20;;
28373;SDS011;15616;40.148;-102.718;2022-12-18T00:51:23;8.13;;;4.18;;
28373;SDS011;15616;40.148;-102.718;2022-12-18T00:53:50;7.53;;;3.88;;
28373;SDS011;15616;40.148;-102.718;2022-12-18T00:56:16;5.90;;;3.47;;
28373;SDS011;15616;40.148;-102.718;2022-12-18T00:58:42;6.28;;;3.78;;
28373;SDS011;15616;40.148;-102.718;2022-12-18T01:01:07;6.65;;;3.80;;
28373;SDS011;15616;40.148;-102.718;2022-12-18T01:03:33;6.93;;;3.58;;
28373;SDS011;15616;40.148;-102.718;2022-12-18T01:06:04;6.13;;;3.72;;
28373;SDS011;15616;40.148;-102.718;2022-12-18T01:08:34;5.70;;;3.67;;
28373;SDS011;15616;40.148;-102.718;2022-12-18T01:11:06;6.65;;;4.00;;
28373;SDS011;15616;40.148;-102.718;2022-12-18T01:13:34;6.38;;;4.10;;
28373;SDS011;15616;40.148;-102.718;2022-12-18T01:16:00;6.93;;;4.13;;
28373;SDS011;15616;40.148;-102.718;2022-12-18T01:18:26;6.30;;;3.85;;
28373;SDS011;15616;40.148;-102.718;2022-12-18T01:20:52;6.40;;;4.10;;
28373;SDS011;15616;40.148;-102.718;2022-12-18T01:23:18;6.43;;;3.80;;
28373;SDS011;15616;40.148;-102.718;2022-12-18T01:25:43;6.78;;;4.15;;
28373;SDS011;15616;40.148;-102.718;2022-12-18T01:28:09;6.70;;;3.72;;
28373;SDS011;15616;40.148;-102.718;2022-12-18T01:30:35;7.05;;;3.92;;
28373;SDS011;15616;40.148;-102.718;2022-12-18T01:33:01;7.30;;;4.20;;
28373;SDS011;15616;40.148;-102.718;2022-12-18T01:35:28;7.78;;;4.25;;
28373;SDS011;15616;40.148;-102.718;2022-12-18T01:37:54;6.95;;;4.32;;
28373;SDS011;15616;40.148;-102.718;2022-12-18T01:40:20;6.03;;;3.83;;
28373;SDS011;15616;40.148;-102.718;2022-12-18T01:42:53;7.65;;;4.53;;
28373;SDS011;15616;40.148;-102.718;2022-12-18T01:45:23;6.10;;;3.80;;
28373;SDS011;15616;40.148;-102.718;2022-12-18T01:47:55;6.15;;;3.65;;
28373;SDS011;15616;40.148;-102.718;2022-12-18T01:50:35;6.45;;;4.10;;
28373;SDS011;15616;40.148;-102.718;2022-12-18T01:53:11;6.57;;;3.90;;
28373;SDS011;15616;40.148;-102.718;2022-12-18T01:55:42;6.90;;;4.03;;
28373;SDS011;15616;40.148;-102.718;2022-12-18T01:58:13;9.02;;;3.95;;
28373;SDS011;15616;40.148;-102.718;2022-12-18T02:00:40;5.82;;;3.85;;
28373;SDS011;15616;40.148;-102.718;2022-12-18T02:03:06;6.57;;;4.07;;
28373;SDS011;15616;40.148;-102.718;2022-12-18T02:08:36;6.60;;;3.72;;
28373;SDS011;15616;40.148;-102.718;2022-12-18T02:17:02;5.80;;;3.50;;
28373;SDS011;15616;40.148;-102.718;2022-12-18T02:19:44;7.60;;;3.72;;
28373;SDS011;15616;40.148;-102.718;2022-12-18T02:27:47;6.75;;;4.10;;
28373;SDS011;15616;40.148;-102.718;2022-12-18T02:30:16;6.32;;;3.75;;
28373;SDS011;15616;40.148;-102.718;2022-12-18T02:32:48;6.20;;;3.80;;
28373;SDS011;15616;40.148;-102.718;2022-12-18T02:35:19;6.10;;;3.58;;
28373;SDS011;15616;40.148;-102.718;2022-12-18T02:37:49;6.28;;;3.80;;
28373;SDS011;15616;40.148;-102.718;2022-12-18T02:40:16;6.65;;;3.80;;
28373;SDS011;15616;40.148;-102.718;2022-12-18T02:42:44;7.10;;;4.00;;
28373;SDS011;15616;40.148;-102.718;2022-12-18T02:45:09;5.90;;;3.83;;
28373;SDS011;15616;40.148;-102.718;2022-12-18T02:47:39;7.00;;;4.15;;
28373;SDS011;15616;40.148;-102.718;2022-12-18T02:53:16;6.30;;;3.90;;
28373;SDS011;15616;40.148;-102.718;2022-12-18T02:58:38;6.60;;;3.90;;
28373;SDS011;15616;40.148;-102.718;2022-12-18T03:01:28;5.75;;;3.58;;
28373;SDS011;15616;40.148;-102.718;2022-12-18T03:04:27;6.85;;;3.72;;
28373;SDS011;15616;40.148;-102.718;2022-12-18T03:06:59;7.28;;;3.72;;
28373;SDS011;15616;40.148;-102.718;2022-12-18T03:09:37;6.25;;;3.80;;
28373;SDS011;15616;40.148;-102.718;2022-12-18T03:17:32;6.47;;;4.03;;
28373;SDS011;15616;40.148;-102.718;2022-12-18T03:20:00;6.25;;;3.90;;
28373;SDS011;15616;40.148;-102.718;2022-12-18T03:22:33;6.60;;;4.13;;
28373;SDS011;15616;40.148;-102.718;2022-12-18T03:25:01;7.07;;;4.00;;
28373;SDS011;15616;40.148;-102.718;2022-12-18T03:27:31;6.68;;;3.88;;
28373;SDS011;15616;40.148;-102.718;2022-12-18T03:30:04;8.50;;;3.95;;
28373;SDS011;15616;40.148;-102.718;2022-12-18T03:32:39;7.25;;;4.30;;
28373;SDS011;15616;40.148;-102.718;2022-12-18T03:35:06;7.72;;;3.50;;
28373;SDS011;15616;40.148;-102.718;2022-12-18T03:37:33;6.70;;;4.00;;
28373;SDS011;15616;40.148;-102.718;2022-12-18T03:40:00;7.18;;;3.80;;
28373;SDS011;15616;40.148;-102.718;2022-12-18T03:42:28;7.93;;;3.92;;
28373;SDS011;15616;40.148;-102.718;2022-12-18T03:45:06;6.85;;;3.90;;
28373;SDS011;15616;40.148;-102.718;2022-12-18T03:50:17;9.57;;;4.10;;
28373;SDS011;15616;40.148;-102.718;2022-12-18T03:55:46;7.50;;;4.00;;
28373;SDS011;15616;40.148;-102.718;2022-12-18T03:58:14;6.47;;;3.92;;
28373;SDS011;15616;40.148;-102.718;2022-12-18T04:00:43;6.05;;;3.67;;
28373;SDS011;15616;40.148;-102.718;2022-12-18T04:03:10;6.38;;;3.65;;
28373;SDS011;15616;40.148;-102.718;2022-12-18T04:05:38;5.93;;;3.72;;
28373;SDS011;15616;40.148;-102.718;2022-12-18T04:08:06;5.45;;;3.45;;
28373;SDS011;15616;40.148;-102.718;2022-12-18T04:10:32;6.03;;;3.47;;
28373;SDS011;15616;40.148;-102.718;2022-12-18T04:13:01;5.65;;;3.80;;
28373;SDS011;15616;40.148;-102.718;2022-12-18T04:15:27;6.70;;;4.13;;
28373;SDS011;15616;40.148;-102.718;2022-12-18T04:17:52;6.18;;;3.50;;
28373;SDS011;15616;40.148;-102.718;2022-12-18T04:20:18;6.75;;;4.00;;
28373;SDS011;15616;40.148;-102.718;2022-12-18T04:22:44;6.15;;;3.65;;
28373;SDS011;15616;40.148;-102.718;2022-12-18T04:25:10;6.82;;;3.92;;
28373;SDS011;15616;40.148;-102.718;2022-12-18T04:27:36;6.55;;;3.80;;
28373;SDS011;15616;40.148;-102.718;2022-12-18T04:30:01;6.65;;;3.70;;
28373;SDS011;15616;40.148;-102.718;2022-12-18T04:32:28;6.32;;;3.55;;
28373;SDS011;15616;40.148;-102.718;2022-12-18T04:34:53;6.85;;;4.00;;
28373;SDS011;15616;40.148;-102.718;2022-12-18T04:37:20;5.88;;;3.45;;
28373;SDS011;15616;40.148;-102.718;2022-12-18T04:39:45;5.15;;;3.28;;
28373;SDS011;15616;40.148;-102.718;2022-12-18T04:42:11;6.25;;;3.60;;
28373;SDS011;15616;40.148;-102.718;2022-12-18T04:44:37;5.57;;;3.58;;
28373;SDS011;15616;40.148;-102.718;2022-12-18T04:47:03;6.93;;;3.80;;
28373;SDS011;15616;40.148;-102.718;2022-12-18T04:49:29;6.63;;;3.85;;
28373;SDS011;15616;40.148;-102.718;2022-12-18T04:51:55;7.55;;;3.83;;
28373;SDS011;15616;40.148;-102.718;2022-12-18T04:54:20;6.65;;;3.95;;
28373;SDS011;15616;40.148;-102.718;2022-12-18T04:56:46;6.68;;;3.65;;
28373;SDS011;15616;40.148;-102.718;2022-12-18T04:59:12;5.65;;;3.35;;
28373;SDS011;15616;40.148;-102.718;2022-12-18T05:01:38;7.55;;;3.83;;
28373;SDS011;15616;40.148;-102.718;2022-12-18T05:04:04;7.18;;;3.75;;
28373;SDS011;15616;40.148;-102.718;2022-12-18T05:06:30;7.15;;;4.10;;
28373;SDS011;15616;40.148;-102.718;2022-12-18T05:08:56;5.90;;;3.70;;
28373;SDS011;15616;40.148;-102.718;2022-12-18T05:11:22;6.03;;;3.67;;
28373;SDS011;15616;40.148;-102.718;2022-12-18T05:13:47;6.75;;;4.07;;
28373;SDS011;15616;40.148;-102.718;2022-12-18T05:16:14;7.65;;;3.92;;
28373;SDS011;15616;40.148;-102.718;2022-12-18T05:18:40;5.78;;;3.55;;
28373;SDS011;15616;40.148;-102.718;2022-12-18T05:21:06;5.75;;;3.40;;
28373;SDS011;15616;40.148;-102.718;2022-12-18T05:23:31;5.55;;;3.67;;
28373;SDS011;15616;40.148;-102.718;2022-12-18T05:26:01;5.53;;;3.65;;
28373;SDS011;15616;40.148;-102.718;2022-12-18T05:28:29;6.43;;;3.83;;
28373;SDS011;15616;40.148;-102.718;2022-12-18T05:30:58;9.00;;;3.80;;
28373;SDS011;15616;40.148;-102.718;2022-12-18T05:33:25;6.82;;;3.78;;
28373;SDS011;15616;40.148;-102.718;2022-12-18T05:35:54;6.22;;;3.72;;
28373;SDS011;15616;40.148;-102.718;2022-12-18T05:38:29;6.75;;;3.78;;
28373;SDS011;15616;40.148;-102.718;2022-12-18T05:40:56;6.32;;;3.90;;
28373;SDS011;15616;40.148;-102.718;2022-12-18T05:43:22;5.97;;;3.70;;
28373;SDS011;15616;40.148;-102.718;2022-12-18T05:45:49;5.00;;;3.17;;
28373;SDS011;15616;40.148;-102.718;2022-12-18T05:48:17;6.05;;;3.80;;
28373;SDS011;15616;40.148;-102.718;2022-12-18T05:50:44;6.10;;;3.85;;
28373;SDS011;15616;40.148;-102.718;2022-12-18T05:53:11;6.55;;;3.70;;
28373;SDS011;15616;40.148;-102.718;2022-12-18T05:55:38;8.10;;;3.80;;
28373;SDS011;15616;40.148;-102.718;2022-12-18T05:58:06;5.70;;;3.65;;
28373;SDS011;15616;40.148;-102.718;2022-12-18T06:00:34;5.53;;;3.45;;
28373;SDS011;15616;40.148;-102.718;2022-12-18T06:03:05;6.57;;;3.72;;
28373;SDS011;15616;40.148;-102.718;2022-12-18T06:05:35;6.20;;;3.67;;
28373;SDS011;15616;40.148;-102.718;2022-12-18T06:08:06;5.93;;;3.50;;
28373;SDS011;15616;40.148;-102.718;2022-12-18T06:10:32;6.22;;;3.78;;
28373;SDS011;15616;40.148;-102.718;2022-12-18T06:12:58;5.78;;;3.55;;
28373;SDS011;15616;40.148;-102.718;2022-12-18T06:15:24;7.75;;;3.90;;
28373;SDS011;15616;40.148;-102.718;2022-12-18T06:17:50;7.60;;;4.00;;
28373;SDS011;15616;40.148;-102.718;2022-12-18T06:20:16;6.93;;;3.95;;
28373;SDS011;15616;40.148;-102.718;2022-12-18T06:22:42;6.47;;;3.67;;
28373;SDS011;15616;40.148;-102.718;2022-12-18T06:25:08;5.70;;;3.47;;
28373;SDS011;15616;40.148;-102.718;2022-12-18T06:27:34;6.57;;;3.60;;
28373;SDS011;15616;40.148;-102.718;2022-12-18T06:30:00;5.68;;;3.60;;
28373;SDS011;15616;40.148;-102.718;2022-12-18T06:32:27;5.57;;;3.40;;
28373;SDS011;15616;40.148;-102.718;2022-12-18T06:34:53;6.10;;;3.55;;
28373;SDS011;15616;40.148;-102.718;2022-12-18T06:37:20;5.72;;;3.50;;
28373;SDS011;15616;40.148;-102.718;2022-12-18T06:39:50;5.82;;;3.38;;
28373;SDS011;15616;40.148;-102.718;2022-12-18T06:42:15;6.07;;;3.60;;
28373;SDS011;15616;40.148;-102.718;2022-12-18T06:44:41;6.78;;;3.50;;
28373;SDS011;15616;40.148;-102.718;2022-12-18T06:47:07;6.68;;;3.45;;
28373;SDS011;15616;40.148;-102.718;2022-12-18T06:49:33;7.07;;;4.20;;
28373;SDS011;15616;40.148;-102.718;2022-12-18T06:51:58;6.35;;;3.55;;
28373;SDS011;15616;40.148;-102.718;2022-12-18T06:54:24;6.57;;;3.67;;
28373;SDS011;15616;40.148;-102.718;2022-12-18T06:56:50;5.85;;;3.40;;
28373;SDS011;15616;40.148;-102.718;2022-12-18T06:59:16;5.22;;;3.28;;
28373;SDS011;15616;40.148;-102.718;2022-12-18T07:01:42;6.28;;;3.60;;
28373;SDS011;15616;40.148;-102.718;2022-12-18T07:04:08;5.72;;;3.63;;
28373;SDS011;15616;40.148;-102.718;2022-12-18T07:06:34;7.05;;;3.75;;
28373;SDS011;15616;40.148;-102.718;2022-12-18T07:08:59;8.18;;;3.80;;
28373;SDS011;15616;40.148;-102.718;2022-12-18T07:11:25;6.43;;;3.70;;
28373;SDS011;15616;40.148;-102.718;2022-12-18T07:13:51;5.43;;;3.13;;
28373;SDS011;15616;40.148;-102.718;2022-12-18T07:16:19;6.75;;;3.70;;
28373;SDS011;15616;40.148;-102.718;2022-12-18T07:18:45;5.75;;;3.20;;
28373;SDS011;15616;40.148;-102.718;2022-12-18T07:21:13;6.82;;;3.60;;
28373;SDS011;15616;40.148;-102.718;2022-12-18T07:23:41;6.65;;;3.60;;
28373;SDS011;15616;40.148;-102.718;2022-12-18T07:26:09;5.32;;;3.30;;
28373;SDS011;15616;40.148;-102.718;2022-12-18T07:28:37;5.75;;;3.78;;
28373;SDS011;15616;40.148;-102.718;2022-12-18T07:31:14;5.03;;;3.25;;
28373;SDS011;15616;40.148;-102.718;2022-12-18T07:33:42;6.05;;;3.25;;
28373;SDS011;15616;40.148;-102.718;2022-12-18T07:36:08;6.68;;;3.42;;
28373;SDS011;15616;40.148;-102.718;2022-12-18T07:38:35;5.47;;;3.40;;
28373;SDS011;15616;40.148;-102.718;2022-12-18T07:41:01;5.18;;;3.22;;
28373;SDS011;15616;40.148;-102.718;2022-12-18T07:43:32;5.53;;;3.08;;
28373;SDS011;15616;40.148;-102.718;2022-12-18T07:45:58;6.85;;;3.60;;
28373;SDS011;15616;40.148;-102.718;2022-12-18T07:48:24;6.68;;;3.67;;
28373;SDS011;15616;40.148;-102.718;2022-12-18T07:50:50;4.95;;;3.08;;
28373;SDS011;15616;40.148;-102.718;2022-12-18T07:53:17;6.07;;;3.42;;
28373;SDS011;15616;40.148;-102.718;2022-12-18T07:55:42;5.75;;;3.47;;
28373;SDS011;15616;40.148;-102.718;2022-12-18T07:58:08;5.75;;;3.20;;
28373;SDS011;15616;40.148;-102.718;2022-12-18T08:00:34;5.72;;;3.53;;
28373;SDS011;15616;40.148;-102.718;2022-12-18T08:03:00;6.47;;;3.58;;
28373;SDS011;15616;40.148;-102.718;2022-12-18T08:05:27;5.53;;;3.30;;
28373;SDS011;15616;40.148;-102.718;2022-12-18T08:07:53;6.40;;;3.45;;
28373;SDS011;15616;40.148;-102.718;2022-12-18T08:10:19;6.80;;;3.80;;
28373;SDS011;15616;40.148;-102.718;2022-12-18T08:12:48;5.82;;;3.47;;
28373;SDS011;15616;40.148;-102.718;2022-12-18T08:15:16;5.57;;;3.30;;
28373;SDS011;15616;40.148;-102.718;2022-12-18T08:17:42;5.88;;;3.50;;
28373;SDS011;15616;40.148;-102.718;2022-12-18T08:20:08;6.78;;;3.33;;
28373;SDS011;15616;40.148;-102.718;2022-12-18T08:22:34;6.20;;;3.50;;
28373;SDS011;15616;40.148;-102.718;2022-12-18T08:25:04;5.35;;;3.42;;
28373;SDS011;15616;40.148;-102.718;2022-12-18T08:27:30;5.22;;;3.20;;
28373;SDS011;15616;40.148;-102.718;2022-12-18T08:29:56;5.68;;;3.30;;
28373;SDS011;15616;40.148;-102.718;2022-12-18T08:32:23;5.32;;;3.00;;
28373;SDS011;15616;40.148;-102.718;2022-12-18T08:34:50;5.35;;;3.20;;
28373;SDS011;15616;40.148;-102.718;2022-12-18T08:37:15;5.68;;;3.50;;
28373;SDS011;15616;40.148;-102.718;2022-12-18T08:39:41;5.65;;;3.40;;
28373;SDS011;15616;40.148;-102.718;2022-12-18T08:42:07;5.68;;;3.35;;
28373;SDS011;15616;40.148;-102.718;2022-12-18T08:44:51;5.75;;;3.28;;
28373;SDS011;15616;40.148;-102.718;2022-12-18T08:47:17;4.65;;;2.97;;
28373;SDS011;15616;40.148;-102.718;2022-12-18T08:49:43;4.63;;;3.10;;
28373;SDS011;15616;40.148;-102.718;2022-12-18T08:52:09;5.93;;;3.35;;
28373;SDS011;15616;40.148;-102.718;2022-12-18T08:54:35;6.07;;;3.60;;
28373;SDS011;15616;40.148;-102.718;2022-12-18T08:57:00;5.63;;;3.55;;
28373;SDS011;15616;40.148;-102.718;2022-12-18T08:59:30;6.15;;;3.70;;
28373;SDS011;15616;40.148;-102.718;2022-12-18T09:01:56;5.28;;;3.40;;
28373;SDS011;15616;40.148;-102.718;2022-12-18T09:04:22;5.95;;;3.67;;
28373;SDS011;15616;40.148;-102.718;2022-12-18T09:06:48;5.72;;;3.35;;
28373;SDS011;15616;40.148;-102.718;2022-12-18T09:09:13;5.95;;;3.22;;
28373;SDS011;15616;40.148;-102.718;2022-12-18T09:11:39;5.28;;;3.20;;
28373;SDS011;15616;40.148;-102.718;2022-12-18T09:14:05;5.57;;;3.30;;
28373;SDS011;15616;40.148;-102.718;2022-12-18T09:16:31;5.70;;;3.58;;
28373;SDS011;15616;40.148;-102.718;2022-12-18T09:19:00;6.75;;;3.70;;
28373;SDS011;15616;40.148;-102.718;2022-12-18T09:21:28;6.55;;;3.40;;
28373;SDS011;15616;40.148;-102.718;2022-12-18T09:23:59;6.20;;;3.47;;
28373;SDS011;15616;40.148;-102.718;2022-12-18T09:26:26;6.63;;;3.60;;
28373;SDS011;15616;40.148;-102.718;2022-12-18T09:28:52;4.72;;;3.17;;
28373;SDS011;15616;40.148;-102.718;2022-12-18T09:31:19;6.75;;;3.67;;
28373;SDS011;15616;40.148;-102.718;2022-12-18T09:33:46;5.63;;;3.38;;
28373;SDS011;15616;40.148;-102.718;2022-12-18T09:36:15;5.85;;;3.15;;
28373;SDS011;15616;40.148;-102.718;2022-12-18T09:38:42;5.32;;;3.40;;
28373;SDS011;15616;40.148;-102.718;2022-12-18T09:43:57;6.43;;;3.30;;
28373;SDS011;15616;40.148;-102.718;2022-12-18T09:46:34;5.53;;;3.23;;
28373;SDS011;15616;40.148;-102.718;2022-12-18T09:49:07;8.00;;;3.45;;
28373;SDS011;15616;40.148;-102.718;2022-12-18T09:51:57;5.07;;;3.25;;
28373;SDS011;15616;40.148;-102.718;2022-12-18T09:54:32;5.88;;;3.13;;
28373;SDS011;15616;40.148;-102.718;2022-12-18T09:57:02;5.93;;;3.33;;
28373;SDS011;15616;40.148;-102.718;2022-12-18T09:59:34;6.65;;;3.47;;
28373;SDS011;15616;40.148;-102.718;2022-12-18T10:04:53;5.03;;;3.20;;
28373;SDS011;15616;40.148;-102.718;2022-12-18T10:07:28;4.88;;;3.15;;
28373;SDS011;15616;40.148;-102.718;2022-12-18T10:10:07;5.85;;;3.63;;
28373;SDS011;15616;40.148;-102.718;2022-12-18T10:12:55;6.15;;;3.28;;
28373;SDS011;15616;40.148;-102.718;2022-12-18T10:15:24;5.25;;;3.15;;
28373;SDS011;15616;40.148;-102.718;2022-12-18T10:20:34;6.38;;;3.35;;
28373;SDS011;15616;40.148;-102.718;2022-12-18T10:26:04;4.78;;;3.15;;
28373;SDS011;15616;40.148;-102.718;2022-12-18T10:28:32;5.53;;;3.45;;
28373;SDS011;15616;40.148;-102.718;2022-12-18T10:31:01;5.15;;;3.10;;
28373;SDS011;15616;40.148;-102.718;2022-12-18T10:33:30;5.80;;;3.35;;
28373;SDS011;15616;40.148;-102.718;2022-12-18T10:35:58;4.57;;;3.03;;
28373;SDS011;15616;40.148;-102.718;2022-12-18T10:38:26;8.75;;;3.40;;
28373;SDS011;15616;40.148;-102.718;2022-12-18T10:40:55;5.82;;;3.60;;
28373;SDS011;15616;40.148;-102.718;2022-12-18T10:51:25;6.13;;;3.30;;
28373;SDS011;15616;40.148;-102.718;2022-12-18T10:53:53;5.22;;;3.05;;
28373;SDS011;15616;40.148;-102.718;2022-12-18T10:56:24;6.35;;;3.17;;
28373;SDS011;15616;40.148;-102.718;2022-12-18T10:58:57;5.47;;;3.00;;
28373;SDS011;15616;40.148;-102.718;2022-12-18T11:01:33;6.07;;;3.35;;
28373;SDS011;15616;40.148;-102.718;2022-12-18T11:04:17;4.45;;;3.00;;
28373;SDS011;15616;40.148;-102.718;2022-12-18T11:06:52;5.82;;;3.13;;
28373;SDS011;15616;40.148;-102.718;2022-12-18T11:09:24;6.28;;;3.20;;
28373;SDS011;15616;40.148;-102.718;2022-12-18T11:11:59;4.90;;;3.08;;
28373;SDS011;15616;40.148;-102.718;2022-12-18T11:14:42;5.82;;;3.28;;
28373;SDS011;15616;40.148;-102.718;2022-12-18T11:19:58;5.55;;;3.15;;
28373;SDS011;15616;40.148;-102.718;2022-12-18T11:22:26;4.70;;;2.85;;
28373;SDS011;15616;40.148;-102.718;2022-12-18T11:25:04;4.85;;;2.92;;
28373;SDS011;15616;40.148;-102.718;2022-12-18T11:27:47;5.35;;;3.10;;
28373;SDS011;15616;40.148;-102.718;2022-12-18T11:30:34;5.18;;;3.20;;
28373;SDS011;15616;40.148;-102.718;2022-12-18T11:33:05;5.20;;;3.30;;
28373;SDS011;15616;40.148;-102.718;2022-12-18T11:38:06;4.93;;;2.85;;
28373;SDS011;15616;40.148;-102.718;2022-12-18T11:40:55;5.85;;;3.30;;
28373;SDS011;15616;40.148;-102.718;2022-12-18T11:43:27;5.53;;;3.05;;
28373;SDS011;15616;40.148;-102.718;2022-12-18T11:46:04;6.00;;;3.25;;
28373;SDS011;15616;40.148;-102.718;2022-12-18T11:48:37;5.93;;;3.40;;
28373;SDS011;15616;40.148;-102.718;2022-12-18T11:51:11;6.20;;;3.22;;
28373;SDS011;15616;40.148;-102.718;2022-12-18T11:53:43;4.30;;;2.87;;
28373;SDS011;15616;40.148;-102.718;2022-12-18T11:59:07;5.97;;;3.20;;
28373;SDS011;15616;40.148;-102.718;2022-12-18T12:24:25;5.47;;;3.30;;
28373;SDS011;15616;40.148;-102.718;2022-12-18T12:41:05;4.75;;;3.00;;
28373;SDS011;15616;40.148;-102.718;2022-12-18T12:43:55;6.50;;;3.42;;
28373;SDS011;15616;40.148;-102.718;2022-12-18T12:46:23;5.90;;;3.35;;
28373;SDS011;15616;40.148;-102.718;2022-12-18T12:49:03;4.22;;;2.70;;
28373;SDS011;15616;40.148;-102.718;2022-12-18T12:54:05;5.30;;;2.90;;
28373;SDS011;15616;40.148;-102.718;2022-12-18T12:56:41;5.20;;;3.30;;
28373;SDS011;15616;40.148;-102.718;2022-12-18T13:13:00;5.82;;;3.05;;
28373;SDS011;15616;40.148;-102.718;2022-12-18T13:20:37;4.63;;;3.00;;
28373;SDS011;15616;40.148;-102.718;2022-12-18T13:31:13;4.07;;;2.80;;
28373;SDS011;15616;40.148;-102.718;2022-12-18T13:36:45;5.00;;;3.00;;
28373;SDS011;15616;40.148;-102.718;2022-12-18T13:41:44;4.10;;;2.75;;
28373;SDS011;15616;40.148;-102.718;2022-12-18T13:51:42;5.32;;;2.80;;
28373;SDS011;15616;40.148;-102.718;2022-12-18T13:54:20;4.47;;;2.90;;
28373;SDS011;15616;40.148;-102.718;2022-12-18T13:57:03;5.05;;;2.80;;
28373;SDS011;15616;40.148;-102.718;2022-12-18T13:59:37;4.60;;;2.85;;
28373;SDS011;15616;40.148;-102.718;2022-12-18T14:02:15;5.32;;;3.00;;
28373;SDS011;15616;40.148;-102.718;2022-12-18T14:04:46;5.25;;;3.05;;
28373;SDS011;15616;40.148;-102.718;2022-12-18T14:09:47;4.78;;;3.00;;
28373;SDS011;15616;40.148;-102.718;2022-12-18T14:12:16;5.05;;;3.13;;
28373;SDS011;15616;40.148;-102.718;2022-12-18T14:15:03;5.40;;;3.10;;
28373;SDS011;15616;40.148;-102.718;2022-12-18T14:17:34;6.03;;;3.15;;
28373;SDS011;15616;40.148;-102.718;2022-12-18T14:20:01;4.20;;;2.80;;
28373;SDS011;15616;40.148;-102.718;2022-12-18T14:22:28;4.38;;;2.78;;
28373;SDS011;15616;40.148;-102.718;2022-12-18T14:27:44;4.15;;;2.70;;
28373;SDS011;15616;40.148;-102.718;2022-12-18T14:30:25;4.45;;;2.88;;
28373;SDS011;15616;40.148;-102.718;2022-12-18T14:33:02;5.57;;;3.15;;
28373;SDS011;15616;40.148;-102.718;2022-12-18T14:35:30;6.25;;;3.40;;
28373;SDS011;15616;40.148;-102.718;2022-12-18T14:38:42;4.72;;;2.70;;
28373;SDS011;15616;40.148;-102.718;2022-12-18T14:40:52;4.40;;;2.90;;
28373;SDS011;15616;40.148;-102.718;2022-12-18T14:43:26;5.07;;;3.08;;
28373;SDS011;15616;40.148;-102.718;2022-12-18T14:45:54;5.22;;;2.92;;
28373;SDS011;15616;40.148;-102.718;2022-12-18T14:48:22;5.68;;;3.33;;
28373;SDS011;15616;40.148;-102.718;2022-12-18T14:51:01;4.40;;;3.00;;
28373;SDS011;15616;40.148;-102.718;2022-12-18T14:53:52;5.68;;;2.92;;
28373;SDS011;15616;40.148;-102.718;2022-12-18T14:56:21;4.38;;;2.95;;
28373;SDS011;15616;40.148;-102.718;2022-12-18T14:58:50;4.43;;;2.80;;
28373;SDS011;15616;40.148;-102.718;2022-12-18T15:01:24;5.18;;;3.00;;
28373;SDS011;15616;40.148;-102.718;2022-12-18T15:04:02;6.00;;;3.00;;
28373;SDS011;15616;40.148;-102.718;2022-12-18T15:08:58;5.38;;;2.83;;
28373;SDS011;15616;40.148;-102.718;2022-12-18T15:17:13;4.75;;;2.88;;
28373;SDS011;15616;40.148;-102.718;2022-12-18T15:19:44;4.20;;;2.85;;
28373;SDS011;15616;40.148;-102.718;2022-12-18T15:22:30;5.03;;;2.72;;
28373;SDS011;15616;40.148;-102.718;2022-12-18T15:25:02;4.53;;;2.75;;
28373;SDS011;15616;40.148;-102.718;2022-12-18T15:27:45;5.15;;;3.08;;
28373;SDS011;15616;40.148;-102.718;2022-12-18T15:30:16;4.93;;;2.70;;
28373;SDS011;15616;40.148;-102.718;2022-12-18T15:32:44;3.78;;;2.75;;
28373;SDS011;15616;40.148;-102.718;2022-12-18T15:37:39;4.95;;;3.03;;
28373;SDS011;15616;40.148;-102.718;2022-12-18T15:40:06;4.13;;;2.60;;
28373;SDS011;15616;40.148;-102.718;2022-12-18T15:42:42;5.00;;;2.88;;
28373;SDS011;15616;40.148;-102.718;2022-12-18T15:45:27;4.57;;;3.00;;
28373;SDS011;15616;40.148;-102.718;2022-12-18T15:47:53;4.95;;;3.13;;
28373;SDS011;15616;40.148;-102.718;2022-12-18T15:50:19;4.28;;;2.80;;
28373;SDS011;15616;40.148;-102.718;2022-12-18T15:52:46;4.85;;;2.78;;
28373;SDS011;15616;40.148;-102.718;2022-12-18T15:55:16;4.28;;;2.55;;
28373;SDS011;15616;40.148;-102.718;2022-12-18T15:58:03;5.18;;;3.17;;
28373;SDS011;15616;40.148;-102.718;2022-12-18T16:00:30;4.30;;;2.88;;
28373;SDS011;15616;40.148;-102.718;2022-12-18T16:02:57;5.50;;;2.85;;
28373;SDS011;15616;40.148;-102.718;2022-12-18T16:05:23;5.10;;;2.95;;
28373;SDS011;15616;40.148;-102.718;2022-12-18T16:07:50;4.75;;;2.90;;
28373;SDS011;15616;40.148;-102.718;2022-12-18T16:10:16;7.20;;;3.35;;
28373;SDS011;15616;40.148;-102.718;2022-12-18T16:12:42;5.35;;;2.85;;
28373;SDS011;15616;40.148;-102.718;2022-12-18T16:15:10;5.90;;;3.17;;
28373;SDS011;15616;40.148;-102.718;2022-12-18T16:17:39;4.70;;;2.80;;
28373;SDS011;15616;40.148;-102.718;2022-12-18T16:20:06;5.15;;;2.88;;
28373;SDS011;15616;40.148;-102.718;2022-12-18T16:25:08;5.72;;;2.85;;
28373;SDS011;15616;40.148;-102.718;2022-12-18T16:27:49;4.43;;;2.83;;
28373;SDS011;15616;40.148;-102.718;2022-12-18T16:30:17;4.95;;;2.85;;
28373;SDS011;15616;40.148;-102.718;2022-12-18T16:32:45;4.90;;;2.85;;
28373;SDS011;15616;40.148;-102.718;2022-12-18T16:35:11;5.22;;;2.70;;
28373;SDS011;15616;40.148;-102.718;2022-12-18T16:37:39;6.35;;;3.08;;
28373;SDS011;15616;40.148;-102.718;2022-12-18T16:40:06;4.82;;;2.80;;
28373;SDS011;15616;40.148;-102.718;2022-12-18T16:42:38;5.35;;;3.20;;
28373;SDS011;15616;40.148;-102.718;2022-12-18T16:45:06;4.78;;;2.72;;
28373;SDS011;15616;40.148;-102.718;2022-12-18T16:47:34;4.82;;;2.80;;
28373;SDS011;15616;40.148;-102.718;2022-12-18T16:49:59;6.03;;;3.00;;
28373;SDS011;15616;40.148;-102.718;2022-12-18T16:52:25;4.70;;;2.78;;
28373;SDS011;15616;40.148;-102.718;2022-12-18T16:54:52;3.85;;;2.60;;
28373;SDS011;15616;40.148;-102.718;2022-12-18T16:57:18;5.07;;;2.88;;
28373;SDS011;15616;40.148;-102.718;2022-12-18T16:59:45;5.57;;;2.85;;